createdAt,value
2022-08-29T00:01:08.686Z,95798.81
2022-08-29T00:03:40.680Z,95794.78
2022-08-29T00:06:10.420Z,95795.34
2022-08-29T00:08:41.344Z,95810.22
2022-08-29T00:11:10.948Z,95802.69
2022-08-29T00:13:40.675Z,95809.19
2022-08-29T00:16:10.529Z,95804.06
2022-08-29T00:18:40.525Z,95805.94
2022-08-29T00:21:10.044Z,95812.75
2022-08-29T00:23:41.198Z,95801.41
2022-08-29T00:26:10.701Z,95813.84
2022-08-29T00:28:40.224Z,95814.88
2022-08-29T00:31:09.917Z,95816.16
2022-08-29T00:33:39.704Z,95814.69
2022-08-29T00:36:10.932Z,95814.09
2022-08-29T00:38:41.956Z,95808.34
2022-08-29T00:41:12.929Z,95809.16
2022-08-29T00:43:42.816Z,95813.75
2022-08-29T00:46:47.348Z,95808.63
2022-08-29T00:49:46.907Z,95824.63
2022-08-29T00:52:25.174Z,95816.28
2022-08-29T00:54:57.786Z,95817.72
2022-08-29T00:57:32.398Z,95812.88
2022-08-29T01:00:02.681Z,95807.50
2022-08-29T01:02:34.392Z,95812.66
2022-08-29T01:05:09.027Z,95815.41
2022-08-29T01:07:40.844Z,95813.47
2022-08-29T01:10:34.436Z,95808.75
2022-08-29T01:13:05.549Z,95803.22
2022-08-29T01:15:37.144Z,95805.38
2022-08-29T01:18:09.194Z,95811.31
2022-08-29T01:20:51.608Z,95804.50
2022-08-29T01:23:29.270Z,95802.63
2022-08-29T01:26:01.487Z,95794.78
2022-08-29T01:28:35.853Z,95795.88
2022-08-29T01:31:11.558Z,95798.06
2022-08-29T01:33:51.274Z,95787.56
2022-08-29T01:36:25.887Z,95794.94
2022-08-29T01:38:55.521Z,95796.06
2022-08-29T01:41:27.374Z,95795.31
2022-08-29T01:43:58.292Z,95789.13
2022-08-29T01:46:31.520Z,95786.72
2022-08-29T01:49:05.497Z,95793.59
2022-08-29T01:51:36.005Z,95790.63
2022-08-29T01:54:07.331Z,95790.09
2022-08-29T01:56:44.780Z,95789.06
2022-08-29T01:59:20.953Z,95791.22
2022-08-29T02:01:58.139Z,95782.34
2022-08-29T02:04:28.018Z,95786.69
2022-08-29T02:06:57.973Z,95785.59
2022-08-29T02:09:29.447Z,95789.41
2022-08-29T02:12:07.088Z,95791.59
2022-08-29T02:14:37.771Z,95790.78
2022-08-29T02:17:08.905Z,95793.50
2022-08-29T02:19:39.909Z,95796.47
2022-08-29T02:22:10.870Z,95793.25
2022-08-29T02:24:40.837Z,95785.69
2022-08-29T02:27:12.563Z,95782.75
2022-08-29T02:29:42.099Z,95782.75
2022-08-29T02:32:15.632Z,95789.25
2022-08-29T02:34:47.848Z,95796.53
2022-08-29T02:37:18.552Z,95794.66
2022-08-29T02:39:48.478Z,95790.03
2022-08-29T02:42:19.718Z,95789.00
2022-08-29T02:44:49.432Z,95789.53
2022-08-29T02:47:19.649Z,95793.34
2022-08-29T02:49:49.793Z,95789.00
2022-08-29T02:52:20.066Z,95789.00
2022-08-29T02:54:50.167Z,95788.78
2022-08-29T02:57:22.009Z,95793.91
2022-08-29T02:59:52.037Z,95786.91
2022-08-29T03:02:22.308Z,95790.72
2022-08-29T03:04:51.951Z,95793.69
2022-08-29T03:07:21.598Z,95791.00
2022-08-29T03:09:51.820Z,95796.38
2022-08-29T03:12:22.740Z,95794.50
2022-08-29T03:14:52.293Z,95797.72
2022-08-29T03:17:21.820Z,95799.59
2022-08-29T03:19:51.277Z,95798.22
2022-08-29T03:22:20.965Z,95791.97
2022-08-29T03:24:50.506Z,95785.44
2022-08-29T03:27:20.605Z,95787.03
2022-08-29T03:29:51.404Z,95793.78
2022-08-29T03:32:20.954Z,95793.78
2022-08-29T03:34:50.873Z,95795.41
2022-08-29T03:37:20.553Z,95796.19
2022-08-29T03:39:50.101Z,95799.13
2022-08-29T03:42:19.598Z,95793.72
2022-08-29T03:44:50.832Z,95793.44
2022-08-29T03:47:20.358Z,95804.50
2022-08-29T03:49:50.040Z,95803.41
2022-08-29T03:52:19.521Z,95807.44
2022-08-29T03:54:49.014Z,95808.78
2022-08-29T03:57:18.515Z,95807.41
2022-08-29T03:59:48.793Z,95801.44
2022-08-29T04:02:25.060Z,95796.56
2022-08-29T04:05:09.962Z,95804.41
2022-08-29T04:07:45.263Z,95804.13
2022-08-29T04:10:20.188Z,95812.78
2022-08-29T04:12:54.286Z,95813.06
2022-08-29T04:15:25.499Z,95806.34
2022-08-29T04:18:02.117Z,95810.69
2022-08-29T04:20:37.437Z,95815.84
2022-08-29T04:23:08.379Z,95819.09
2022-08-29T04:25:37.974Z,95815.88
2022-08-29T04:28:11.445Z,95818.03
2022-08-29T04:30:51.814Z,95814.03
2022-08-29T04:33:27.674Z,95817.03
2022-08-29T04:35:57.093Z,95817.31
2022-08-29T04:38:26.549Z,95818.91
2022-08-29T04:40:56.372Z,95829.72
2022-08-29T04:43:25.941Z,95827.03
2022-08-29T04:45:56.482Z,95825.94
2022-08-29T04:48:27.742Z,95831.03
2022-08-29T04:50:58.402Z,95836.97
2022-08-29T04:53:30.974Z,95833.19
2022-08-29T04:56:05.099Z,95841.81
2022-08-29T04:58:36.145Z,95833.69
2022-08-29T05:01:07.032Z,95833.94
2022-08-29T05:03:37.840Z,95837.97
2022-08-29T05:06:11.971Z,95823.66
2022-08-29T05:08:45.762Z,95835.00
2022-08-29T05:11:23.096Z,95833.63
2022-08-29T05:13:53.887Z,95836.84
2022-08-29T05:16:23.769Z,95839.28
2022-08-29T05:18:55.163Z,95844.69
2022-08-29T05:21:27.223Z,95841.44
2022-08-29T05:23:57.497Z,95841.44
2022-08-29T05:26:32.471Z,95842.72
2022-08-29T05:29:01.962Z,95846.50
2022-08-29T05:31:31.463Z,95844.59
2022-08-29T05:34:02.355Z,95858.09
2022-08-29T05:36:51.765Z,95847.25
2022-08-29T05:39:21.262Z,95849.94
2022-08-29T05:41:51.199Z,95852.31
2022-08-29T05:44:20.744Z,95847.94
2022-08-29T05:46:50.265Z,95859.00
2022-08-29T05:49:21.432Z,95849.75
2022-08-29T05:51:54.327Z,95851.34
2022-08-29T05:54:30.335Z,95846.41
2022-08-29T05:56:59.965Z,95864.19
2022-08-29T05:59:29.490Z,95860.06
2022-08-29T06:01:59.337Z,95853.50
2022-08-29T06:04:30.236Z,95862.66
2022-08-29T06:06:59.910Z,95856.03
2022-08-29T06:09:29.788Z,95856.56
2022-08-29T06:11:59.343Z,95856.22
2022-08-29T06:14:28.991Z,95857.59
2022-08-29T06:16:58.867Z,95852.13
2022-08-29T06:19:34.655Z,95857.50
2022-08-29T06:22:09.676Z,95857.22
2022-08-29T06:24:42.602Z,95867.69
2022-08-29T06:27:15.336Z,95868.13
2022-08-29T06:29:44.848Z,95865.59
2022-08-29T06:32:14.794Z,95863.03
2022-08-29T06:34:45.810Z,95869.66
2022-08-29T06:37:15.335Z,95875.03
2022-08-29T06:39:44.835Z,95876.34
2022-08-29T06:42:14.385Z,95879.88
2022-08-29T06:44:44.625Z,95877.06
2022-08-29T06:47:14.390Z,95878.41
2022-08-29T06:49:45.278Z,95876.66
2022-08-29T06:52:15.288Z,95880.84
2022-08-29T06:54:44.841Z,95885.72
2022-08-29T06:57:14.484Z,95888.91
2022-08-29T06:59:44.071Z,95880.19
2022-08-29T07:02:14.003Z,95891.50
2022-08-29T07:04:44.890Z,95890.25
2022-08-29T07:07:14.810Z,95892.81
2022-08-29T07:09:44.616Z,95898.66
2022-08-29T07:12:14.152Z,95885.09
2022-08-29T07:14:43.609Z,95887.44
2022-08-29T07:17:25.555Z,95891.88
2022-08-29T07:19:57.073Z,95894.81
2022-08-29T07:22:27.168Z,95889.22
2022-08-29T07:24:56.985Z,95890.16
2022-08-29T07:27:26.552Z,95886.94
2022-08-29T07:29:56.177Z,95882.78
2022-08-29T07:32:26.082Z,95890.25
2022-08-29T07:34:57.095Z,95890.66
2022-08-29T07:37:26.596Z,95894.28
2022-08-29T07:39:56.412Z,95902.72
2022-08-29T07:42:27.352Z,95905.66
2022-08-29T07:44:56.807Z,95905.28
2022-08-29T07:47:28.813Z,95895.50
2022-08-29T07:50:01.672Z,95901.75
2022-08-29T07:52:31.297Z,95902.03
2022-08-29T07:55:01.393Z,95902.22
2022-08-29T07:57:30.946Z,95909.09
2022-08-29T08:00:02.488Z,95908.28
2022-08-29T08:02:41.991Z,95908.56
2022-08-29T08:05:13.078Z,95898.19
2022-08-29T08:07:42.656Z,95903.25
2022-08-29T08:10:13.015Z,95901.22
2022-08-29T08:12:42.496Z,95903.09
2022-08-29T08:15:12.340Z,95903.72
2022-08-29T08:17:44.207Z,95905.28
2022-08-29T08:20:15.694Z,95904.25
2022-08-29T08:22:45.240Z,95911.25
2022-08-29T08:25:14.705Z,95911.03
2022-08-29T08:27:44.189Z,95905.84
2022-08-29T08:30:15.433Z,95916.97
2022-08-29T08:32:48.024Z,95914.91
2022-08-29T08:35:23.006Z,95921.75
2022-08-29T08:37:53.324Z,95916.84
2022-08-29T08:40:28.678Z,95916.09
2022-08-29T08:43:02.754Z,95915.06
2022-08-29T08:45:39.410Z,95913.69
2022-08-29T08:48:15.957Z,95912.28
2022-08-29T08:50:55.039Z,95903.31
2022-08-29T08:53:35.864Z,95915.53
2022-08-29T08:56:16.246Z,95900.75
2022-08-29T08:58:55.215Z,95910.69
2022-08-29T09:01:32.179Z,95905.75
2022-08-29T09:04:38.665Z,95905.22
2022-08-29T09:07:49.305Z,95906.94
2022-08-29T09:10:32.954Z,95895.63
2022-08-29T09:13:24.806Z,95901.19
2022-08-29T09:16:00.152Z,95901.97
2022-08-29T09:18:36.532Z,95899.94
2022-08-29T09:21:39.560Z,95898.53
2022-08-29T09:24:12.061Z,95899.44
2022-08-29T09:26:41.811Z,95895.91
2022-08-29T09:29:13.851Z,95892.34
2022-08-29T09:31:43.530Z,95902.47
2022-08-29T09:34:50.832Z,95902.00
2022-08-29T09:37:31.294Z,95907.50
2022-08-29T09:40:11.072Z,95903.56
2022-08-29T09:42:53.300Z,95908.19
2022-08-29T09:45:26.364Z,95907.47
2022-08-29T09:48:15.434Z,95907.56
2022-08-29T09:50:46.324Z,95903.13
2022-08-29T09:53:25.617Z,95903.38
2022-08-29T09:55:56.608Z,95897.66
2022-08-29T09:58:39.718Z,95887.38
2022-08-29T10:01:18.691Z,95891.38
2022-08-29T10:03:58.504Z,95891.56
2022-08-29T10:06:33.713Z,95888.88
2022-08-29T10:09:09.290Z,95887.38
2022-08-29T10:11:55.772Z,95894.88
2022-08-29T10:14:38.373Z,95890.75
2022-08-29T10:17:37.841Z,95890.81
2022-08-29T10:20:09.902Z,95888.66
2022-08-29T10:22:47.347Z,95897.66
2022-08-29T10:25:27.522Z,95896.22
2022-08-29T10:28:08.764Z,95894.81
2022-08-29T10:30:54.021Z,95892.00
2022-08-29T10:33:48.981Z,95889.63
2022-08-29T10:36:27.992Z,95886.75
2022-08-29T10:39:12.168Z,95880.41
2022-08-29T10:41:56.585Z,95876.38
2022-08-29T10:44:39.185Z,95883.38
2022-08-29T10:47:26.996Z,95886.59
2022-08-29T10:50:43.021Z,95900.81
2022-08-29T10:53:18.605Z,95891.41
2022-08-29T10:55:56.195Z,95886.03
2022-08-29T10:58:41.890Z,95882.31
2022-08-29T11:01:22.297Z,95881.84
2022-08-29T11:04:08.705Z,95876.09
2022-08-29T11:06:47.213Z,95875.75
2022-08-29T11:09:25.024Z,95880.22
2022-08-29T11:12:12.527Z,95877.84
2022-08-29T11:14:57.883Z,95887.97
2022-08-29T11:17:37.553Z,95883.09
2022-08-29T11:20:16.308Z,95883.28
2022-08-29T11:22:55.565Z,95872.91
2022-08-29T11:25:25.208Z,95879.59
2022-08-29T11:28:12.848Z,95880.00
2022-08-29T11:30:52.200Z,95886.19
2022-08-29T11:33:37.687Z,95875.16
2022-08-29T11:36:39.065Z,95878.81
2022-08-29T11:39:42.484Z,95880.69
2022-08-29T11:42:49.950Z,95878.81
2022-08-29T11:45:12.979Z,95881.59
2022-08-29T11:48:01.780Z,95881.91
2022-08-29T11:50:36.779Z,95884.41
2022-08-29T11:53:16.843Z,95878.56
2022-08-29T11:56:28.401Z,95882.66
2022-08-29T11:59:00.104Z,95873.84
2022-08-29T12:02:00.986Z,95879.81
2022-08-29T12:04:58.177Z,95874.69
2022-08-29T12:07:39.657Z,95875.06
2022-08-29T12:10:26.538Z,95878.06
2022-08-29T12:13:00.841Z,95876.75
2022-08-29T12:15:55.240Z,95865.97
2022-08-29T12:18:49.497Z,95870.72
2022-08-29T12:21:49.583Z,95870.94
2022-08-29T12:24:57.367Z,95868.19
2022-08-29T12:28:06.011Z,95871.50
2022-08-29T12:30:42.088Z,95860.81
2022-08-29T12:33:32.452Z,95866.50
2022-08-29T12:36:27.255Z,95858.16
2022-08-29T12:39:19.430Z,95868.50
2022-08-29T12:42:22.792Z,95853.00
2022-08-29T12:45:03.246Z,95852.88
2022-08-29T12:47:41.845Z,95844.25
2022-08-29T12:50:22.422Z,95843.13
2022-08-29T12:53:03.929Z,95838.00
2022-08-29T12:55:40.829Z,95843.09
2022-08-29T12:58:15.498Z,95838.81
2022-08-29T13:00:54.007Z,95834.47
2022-08-29T13:03:24.208Z,95837.94
2022-08-29T13:06:04.136Z,95835.00
2022-08-29T13:08:38.026Z,95834.13
2022-08-29T13:11:12.726Z,95831.19
2022-08-29T13:13:43.556Z,95829.75
2022-08-29T13:16:30.128Z,95823.97
2022-08-29T13:19:10.836Z,95825.66
2022-08-29T13:21:41.233Z,95825.25
2022-08-29T13:24:17.913Z,95822.50
2022-08-29T13:27:04.867Z,95815.09
2022-08-29T13:29:42.160Z,95816.31
2022-08-29T13:32:23.796Z,95815.19
2022-08-29T13:35:08.349Z,95802.03
2022-08-29T13:37:42.125Z,95812.38
2022-08-29T13:40:41.099Z,95801.63
2022-08-29T13:43:35.741Z,95795.59
2022-08-29T13:46:18.211Z,95790.78
2022-08-29T13:48:48.000Z,95799.97
2022-08-29T13:51:18.601Z,95797.28
2022-08-29T13:53:48.126Z,95798.50
2022-08-29T13:56:27.867Z,95794.13
2022-08-29T13:59:01.421Z,95793.69
2022-08-29T14:02:08.672Z,95792.53
2022-08-29T14:04:38.087Z,95789.69
2022-08-29T14:07:10.896Z,95776.88
2022-08-29T14:09:45.654Z,95773.16
2022-08-29T14:12:16.284Z,95776.66
2022-08-29T14:14:46.950Z,95766.66
2022-08-29T14:17:19.309Z,95774.94
2022-08-29T14:19:48.959Z,95770.47
2022-08-29T14:22:18.537Z,95765.38
2022-08-29T14:24:52.717Z,95764.59
2022-08-29T14:27:23.085Z,95761.00
2022-08-29T14:29:53.135Z,95760.25
2022-08-29T14:32:26.847Z,95761.81
2022-08-29T14:34:56.627Z,95760.22
2022-08-29T14:37:26.692Z,95758.28
2022-08-29T14:39:56.354Z,95761.00
2022-08-29T14:42:28.397Z,95760.50
2022-08-29T14:44:57.900Z,95766.03
2022-08-29T14:47:28.829Z,95756.81
2022-08-29T14:49:58.289Z,95755.09
2022-08-29T14:52:27.980Z,95767.03
2022-08-29T14:54:58.889Z,95762.69
2022-08-29T14:57:28.345Z,95755.53
2022-08-29T14:59:57.881Z,95750.75
2022-08-29T15:02:28.777Z,95753.97
2022-08-29T15:04:58.830Z,95747.97
2022-08-29T15:07:28.464Z,95743.78
2022-08-29T15:09:58.045Z,95747.13
2022-08-29T15:12:29.020Z,95752.84
2022-08-29T15:14:58.724Z,95750.13
2022-08-29T15:17:29.715Z,95751.06
2022-08-29T15:22:49.084Z,95755.56
2022-08-29T15:25:18.772Z,95750.34
2022-08-29T15:27:48.633Z,95747.59
2022-08-29T15:30:24.349Z,95743.66
2022-08-29T15:32:55.367Z,95748.06
2022-08-29T15:35:25.286Z,95746.84
2022-08-29T15:37:54.909Z,95741.25
2022-08-29T15:40:27.407Z,95746.75
2022-08-29T15:42:56.943Z,95740.34
2022-08-29T15:45:26.506Z,95741.50
2022-08-29T15:48:01.267Z,95738.91
2022-08-29T15:50:31.317Z,95732.03
2022-08-29T15:53:00.800Z,95743.31
2022-08-29T15:55:30.559Z,95740.97
2022-08-29T15:58:00.154Z,95744.72
2022-08-29T16:00:31.210Z,95738.56
2022-08-29T16:03:07.077Z,95737.19
2022-08-29T16:05:40.228Z,95737.84
2022-08-29T16:08:11.014Z,95739.25
2022-08-29T16:10:47.017Z,95737.34
2022-08-29T16:13:17.108Z,95737.88
2022-08-29T16:15:49.005Z,95739.56
2022-08-29T16:18:20.333Z,95736.16
2022-08-29T16:20:50.125Z,95738.75
2022-08-29T16:23:22.084Z,95741.94
2022-08-29T16:25:51.597Z,95748.75
2022-08-29T16:28:21.206Z,95749.03
2022-08-29T16:30:51.459Z,95741.88
2022-08-29T16:33:22.356Z,95739.94
2022-08-29T16:35:51.873Z,95734.75
2022-08-29T16:38:21.836Z,95738.19
2022-08-29T16:40:51.696Z,95741.19
2022-08-29T16:43:21.258Z,95734.41
2022-08-29T16:45:50.900Z,95743.75
2022-08-29T16:48:22.001Z,95742.84
2022-08-29T16:50:51.774Z,95750.13
2022-08-29T16:53:21.667Z,95747.09
2022-08-29T16:55:51.517Z,95754.19
2022-08-29T16:58:38.799Z,95754.47
2022-08-29T17:01:08.981Z,95753.53
2022-08-29T17:03:39.865Z,95748.69
2022-08-29T17:06:10.090Z,95749.41
2022-08-29T17:08:38.935Z,95748.16
2022-08-29T17:11:07.717Z,95747.50
2022-08-29T17:13:38.475Z,95740.75
2022-08-29T17:16:09.782Z,95743.72
2022-08-29T17:18:40.848Z,95739.50
2022-08-29T17:21:11.905Z,95734.38
2022-08-29T17:23:42.376Z,95742.16
2022-08-29T17:26:16.220Z,95740.03
2022-08-29T17:28:48.235Z,95741.03
2022-08-29T17:31:19.244Z,95740.41
2022-08-29T17:33:50.281Z,95743.38
2022-08-29T17:36:21.232Z,95749.16
2022-08-29T17:38:51.441Z,95742.72
2022-08-29T17:41:23.257Z,95743.69
2022-08-29T17:43:52.872Z,95740.28
2022-08-29T17:46:22.618Z,95748.19
2022-08-29T17:48:53.694Z,95745.44
2022-08-29T17:51:23.187Z,95752.13
2022-08-29T17:53:54.125Z,95748.69
2022-08-29T17:56:41.973Z,95746.72
2022-08-29T17:59:14.591Z,95752.94
2022-08-29T18:01:44.924Z,95757.28
2022-08-29T18:04:16.613Z,95762.66
2022-08-29T18:06:47.082Z,95763.97
2022-08-29T18:09:17.017Z,95769.47
2022-08-29T18:11:50.822Z,95766.75
2022-08-29T18:14:23.676Z,95766.91
2022-08-29T18:16:54.217Z,95773.31
2022-08-29T18:19:26.977Z,95767.97
2022-08-29T18:21:56.631Z,95772.16
2022-08-29T18:24:26.184Z,95779.03
2022-08-29T18:26:55.835Z,95770.63
2022-08-29T18:29:25.383Z,95779.13
2022-08-29T18:31:54.897Z,95777.81
2022-08-29T18:34:26.011Z,95781.13
2022-08-29T18:36:55.549Z,95782.50
2022-08-29T18:40:03.492Z,95793.81
2022-08-29T18:42:45.012Z,95796.31
2022-08-29T18:45:14.898Z,95787.91
2022-08-29T18:47:44.543Z,95794.72
2022-08-29T18:50:35.813Z,95796.88
2022-08-29T18:53:13.601Z,95797.94
2022-08-29T18:55:51.174Z,95794.34
2022-08-29T18:58:26.451Z,95794.53
2022-08-29T19:01:12.245Z,95804.28
2022-08-29T19:03:49.315Z,95803.88
2022-08-29T19:06:23.620Z,95805.72
2022-08-29T19:08:58.349Z,95809.97
2022-08-29T19:11:29.171Z,95820.47
2022-08-29T19:13:58.866Z,95816.53
2022-08-29T19:16:28.572Z,95819.97
2022-08-29T19:18:58.266Z,95821.50
2022-08-29T19:21:28.278Z,95819.97
2022-08-29T19:23:57.998Z,95829.34
2022-08-29T19:26:34.379Z,95823.78
2022-08-29T19:29:12.379Z,95835.91
2022-08-29T19:31:44.740Z,95838.97
2022-08-29T19:34:14.358Z,95833.31
2022-08-29T19:36:47.028Z,95826.88
2022-08-29T19:39:16.815Z,95826.66
2022-08-29T19:41:46.303Z,95828.59
2022-08-29T19:44:15.750Z,95829.19
2022-08-29T19:46:49.348Z,95830.41
2022-08-29T19:49:19.648Z,95829.69
2022-08-29T19:52:07.597Z,95833.88
2022-08-29T19:54:43.570Z,95833.16
2022-08-29T19:57:28.867Z,95835.16
2022-08-29T20:00:13.106Z,95837.19
2022-08-29T20:02:54.329Z,95846.50
2022-08-29T20:05:27.387Z,95853.63
2022-08-29T20:08:04.933Z,95849.88
2022-08-29T20:10:34.973Z,95846.66
2022-08-29T20:13:04.622Z,95842.09
2022-08-29T20:15:34.189Z,95844.94
2022-08-29T20:18:06.048Z,95843.59
2022-08-29T20:20:37.022Z,95849.91
2022-08-29T20:23:09.346Z,95842.66
2022-08-29T20:25:39.618Z,95845.44
2022-08-29T20:28:14.781Z,95842.81
2022-08-29T20:30:45.913Z,95843.72
2022-08-29T20:33:19.874Z,95841.25
2022-08-29T20:36:06.807Z,95841.84
2022-08-29T20:38:37.800Z,95850.56
2022-08-29T20:41:07.468Z,95847.03
2022-08-29T20:43:39.207Z,95843.00
2022-08-29T20:46:10.001Z,95841.47
2022-08-29T20:48:40.112Z,95844.47
2022-08-29T20:51:11.632Z,95841.22
2022-08-29T20:53:42.901Z,95848.56
2022-08-29T20:56:12.842Z,95846.94
2022-08-29T20:58:42.309Z,95842.94
2022-08-29T21:01:11.896Z,95845.13
2022-08-29T21:03:58.829Z,95847.63
2022-08-29T21:06:28.478Z,95853.34
2022-08-29T21:08:59.352Z,95848.50
2022-08-29T21:11:28.926Z,95838.53
2022-08-29T21:13:58.522Z,95851.56
2022-08-29T21:16:28.613Z,95851.63
2022-08-29T21:18:58.365Z,95856.00
2022-08-29T21:21:27.888Z,95852.28
2022-08-29T21:23:58.783Z,95858.00
2022-08-29T21:26:28.305Z,95861.28
2022-08-29T21:28:57.871Z,95853.16
2022-08-29T21:31:27.630Z,95857.53
2022-08-29T21:33:57.369Z,95852.97
2022-08-29T21:36:29.715Z,95858.69
2022-08-29T21:39:02.196Z,95853.84
2022-08-29T21:41:33.586Z,95858.22
2022-08-29T21:44:05.204Z,95853.88
2022-08-29T21:46:42.690Z,95850.69
2022-08-29T21:49:21.729Z,95853.41
2022-08-29T21:51:51.491Z,95859.91
2022-08-29T21:54:22.372Z,95863.44
2022-08-29T21:56:51.885Z,95852.06
2022-08-29T21:59:21.961Z,95852.66
2022-08-29T22:01:54.662Z,95854.03
2022-08-29T22:04:28.508Z,95848.38
2022-08-29T22:06:59.831Z,95847.34
2022-08-29T22:09:31.837Z,95847.91
2022-08-29T22:12:01.326Z,95849.56
2022-08-29T22:14:45.019Z,95853.66
2022-08-29T22:17:15.857Z,95857.78
2022-08-29T22:19:45.530Z,95856.72
2022-08-29T22:22:14.996Z,95853.50
2022-08-29T22:24:46.504Z,95857.56
2022-08-29T22:27:15.985Z,95859.72
2022-08-29T22:29:46.098Z,95859.72
2022-08-29T22:32:15.712Z,95850.00
2022-08-29T22:34:45.294Z,95851.66
2022-08-29T22:37:14.756Z,95847.09
2022-08-29T22:39:45.723Z,95850.66
2022-08-29T22:42:15.431Z,95849.84
2022-08-29T22:45:03.359Z,95855.84
2022-08-29T22:47:33.531Z,95853.44
2022-08-29T22:50:03.845Z,95850.47
2022-08-29T22:52:33.452Z,95854.03
2022-08-29T22:55:07.381Z,95862.72
2022-08-29T22:57:37.189Z,95854.88
2022-08-29T23:00:09.621Z,95849.75
2022-08-29T23:02:39.523Z,95855.72
2022-08-29T23:05:10.033Z,95861.44
2022-08-29T23:07:40.078Z,95853.88
2022-08-29T23:10:13.337Z,95855.28
2022-08-29T23:12:43.212Z,95857.22
2022-08-29T23:15:18.495Z,95862.09
2022-08-29T23:17:48.124Z,95865.34
2022-08-29T23:20:19.909Z,95864.59
2022-08-29T23:22:49.393Z,95860.53
2022-08-29T23:25:20.704Z,95869.22
2022-08-29T23:27:50.208Z,95865.19
2022-08-29T23:30:19.780Z,95862.75
2022-08-29T23:32:49.485Z,95859.56
2022-08-29T23:35:19.205Z,95853.31
2022-08-29T23:37:48.676Z,95851.72
2022-08-29T23:40:19.788Z,95853.63
2022-08-29T23:42:50.719Z,95853.38
2022-08-29T23:45:20.449Z,95847.41
2022-08-29T23:47:49.991Z,95846.63
2022-08-29T23:50:19.779Z,95852.00
2022-08-29T23:52:49.236Z,95847.16
2022-08-29T23:55:20.371Z,95842.25
2022-08-29T23:57:49.885Z,95838.22
